Time;durP1;ratioP1;P1;durP2;ratioP2;P2;SDS_P1;SDS_P2;PMS_P1;PMS_P2;Temp;Humidity;BMP_temperature;BMP_pressure;BME280_temperature;BME280_humidity;BME280_pressure;Samples;Min_cycle;Max_cycle;Signal;HPM_P1;HPM_P2
2021/11/14 00:02:10;;;;;;;153.50;63.50;;;2.90;99.90;;;;;;5129787;27;20205;-70
2021/11/14 00:04:59;;;;;;;148.20;61.80;;;2.90;99.90;;;;;;5129734;27;20219;-70
2021/11/14 00:07:48;;;;;;;138.63;58.73;;;3.00;99.90;;;;;;5130076;27;20237;-70
2021/11/14 00:10:37;;;;;;;149.27;59.47;;;3.00;99.90;;;;;;5129477;27;20206;-70
2021/11/14 00:13:25;;;;;;;153.23;56.80;;;3.10;99.90;;;;;;5130019;27;20201;-70
2021/11/14 00:16:13;;;;;;;133.73;54.27;;;3.10;99.90;;;;;;5130436;27;20202;-69
2021/11/14 00:19:01;;;;;;;155.27;61.57;;;3.10;99.90;;;;;;5130310;27;20194;-70
2021/11/14 00:21:48;;;;;;;174.67;62.67;;;3.10;99.90;;;;;;5129983;27;20562;-70
2021/11/14 00:24:36;;;;;;;145.23;60.00;;;3.10;99.90;;;;;;5130049;27;20211;-70
2021/11/14 00:27:25;;;;;;;151.93;59.37;;;3.20;99.90;;;;;;5129297;27;20238;-70
2021/11/14 00:30:13;;;;;;;270.87;85.70;;;3.10;99.90;;;;;;5130022;27;20210;-70
2021/11/14 00:33:00;;;;;;;177.57;59.27;;;3.20;99.90;;;;;;5128952;27;20227;-70
2021/11/14 00:35:52;;;;;;;207.73;69.10;;;3.20;99.90;;;;;;5129909;27;20208;-70
2021/11/14 00:38:39;;;;;;;117.43;47.57;;;3.20;99.90;;;;;;5129475;27;20569;-70
2021/11/14 00:41:27;;;;;;;218.33;71.37;;;3.30;99.90;;;;;;5128489;27;20205;-70
2021/11/14 00:44:16;;;;;;;224.93;73.83;;;3.30;99.90;;;;;;5129479;27;20344;-70
2021/11/14 00:47:05;;;;;;;188.60;66.03;;;3.30;99.90;;;;;;5128797;27;20217;-70
2021/11/14 00:49:52;;;;;;;183.93;64.33;;;3.30;99.90;;;;;;5129251;28;20275;-70
2021/11/14 00:52:41;;;;;;;184.00;64.27;;;3.30;99.90;;;;;;5130012;28;20202;-70
2021/11/14 00:55:35;;;;;;;160.77;60.00;;;3.30;99.90;;;;;;5129164;28;20222;-70
2021/11/14 00:58:27;;;;;;;187.87;63.67;;;3.30;99.90;;;;;;5129388;28;20205;-70
2021/11/14 01:01:25;;;;;;;168.00;60.13;;;3.30;99.90;;;;;;5129502;28;20286;-70
2021/11/14 01:04:13;;;;;;;155.53;56.87;;;3.40;99.90;;;;;;5129825;28;20221;-70
2021/11/14 01:07:02;;;;;;;152.93;60.60;;;3.40;99.90;;;;;;5130390;28;20202;-70
2021/11/14 01:09:50;;;;;;;168.13;60.80;;;3.40;99.90;;;;;;5129359;28;20281;-70
2021/11/14 01:12:40;;;;;;;168.60;59.23;;;3.40;99.90;;;;;;5129026;28;20206;-70
2021/11/14 01:15:29;;;;;;;114.37;47.03;;;3.40;99.90;;;;;;5128453;28;20191;-70
2021/11/14 01:18:20;;;;;;;166.00;58.00;;;3.40;99.90;;;;;;5128958;28;20286;-70
2021/11/14 01:21:09;;;;;;;141.50;55.13;;;3.40;99.90;;;;;;5129239;28;20250;-70
2021/11/14 01:23:58;;;;;;;142.43;52.40;;;3.40;99.90;;;;;;5128904;28;20218;-70
2021/11/14 01:26:45;;;;;;;146.73;52.30;;;3.50;99.90;;;;;;5128527;28;20672;-70
2021/11/14 01:29:33;;;;;;;144.17;53.63;;;3.50;99.90;;;;;;5130213;28;20206;-70
2021/11/14 01:32:20;;;;;;;143.70;55.20;;;3.50;99.90;;;;;;5129038;28;20237;-70
2021/11/14 01:35:10;;;;;;;163.10;57.90;;;3.50;99.90;;;;;;5129428;28;20232;-70
2021/11/14 01:37:57;;;;;;;162.33;57.93;;;3.50;99.90;;;;;;5129034;28;20447;-70
2021/11/14 01:40:46;;;;;;;152.80;58.53;;;3.50;99.90;;;;;;5129652;28;20198;-70
2021/11/14 01:43:35;;;;;;;157.80;60.40;;;3.50;99.90;;;;;;5129528;28;20203;-70
2021/11/14 01:46:23;;;;;;;162.87;60.17;;;3.50;99.90;;;;;;5129486;28;20194;-70
2021/11/14 01:49:11;;;;;;;146.47;59.50;;;3.60;99.90;;;;;;5130132;28;20677;-70
2021/11/14 01:52:00;;;;;;;152.00;62.63;;;3.50;99.90;;;;;;5129034;27;20202;-70
2021/11/14 01:54:47;;;;;;;149.13;60.77;;;3.50;99.90;;;;;;5132950;27;20595;-70
2021/11/14 01:57:36;;;;;;;152.00;62.73;;;3.50;99.90;;;;;;5133189;27;20220;-70
2021/11/14 02:00:25;;;;;;;148.67;59.70;;;3.50;99.90;;;;;;5132244;27;20763;-70
2021/11/14 02:03:13;;;;;;;150.37;61.53;;;3.60;99.90;;;;;;5132238;27;20202;-70
2021/11/14 02:06:02;;;;;;;144.33;57.97;;;3.60;99.90;;;;;;5132551;27;20570;-70
2021/11/14 02:08:53;;;;;;;161.67;59.17;;;3.60;99.90;;;;;;5132232;27;20302;-70
2021/11/14 02:11:41;;;;;;;157.97;59.80;;;3.60;99.90;;;;;;5132617;27;20554;-70
2021/11/14 02:14:29;;;;;;;152.27;58.57;;;3.60;99.90;;;;;;5132893;27;20208;-70
2021/11/14 02:17:16;;;;;;;150.23;58.80;;;3.60;99.90;;;;;;5132728;27;20572;-70
2021/11/14 02:20:07;;;;;;;152.47;59.90;;;3.60;99.90;;;;;;5132742;27;20199;-70
2021/11/14 02:22:55;;;;;;;144.23;57.43;;;3.60;99.90;;;;;;5132093;27;20283;-70
2021/11/14 02:25:43;;;;;;;154.77;57.87;;;3.60;99.90;;;;;;5132823;27;20215;-70
2021/11/14 02:28:30;;;;;;;160.40;59.87;;;3.60;99.90;;;;;;5131804;27;20202;-70
2021/11/14 02:31:18;;;;;;;160.83;59.90;;;3.60;99.90;;;;;;5131936;27;20741;-70
2021/11/14 02:34:05;;;;;;;150.17;57.10;;;3.60;99.90;;;;;;5131489;27;20708;-70
2021/11/14 02:36:54;;;;;;;144.93;57.53;;;3.60;99.90;;;;;;5131600;27;20577;-70
2021/11/14 02:39:42;;;;;;;161.13;59.60;;;3.60;99.90;;;;;;5132861;27;20278;-70
2021/11/14 02:42:29;;;;;;;162.63;62.57;;;3.60;99.90;;;;;;5132351;27;20211;-70
2021/11/14 02:45:18;;;;;;;169.00;61.90;;;3.70;99.90;;;;;;5131285;27;20221;-70
2021/11/14 02:48:06;;;;;;;159.23;63.67;;;3.70;99.90;;;;;;5131464;27;20578;-71
2021/11/14 02:50:55;;;;;;;181.50;65.73;;;3.60;99.90;;;;;;5130932;27;20202;-70
2021/11/14 02:53:44;;;;;;;175.40;62.87;;;3.70;99.90;;;;;;5131147;27;20305;-70
2021/11/14 02:56:31;;;;;;;174.23;64.43;;;3.70;99.90;;;;;;5132138;27;20657;-70
2021/11/14 02:59:19;;;;;;;178.43;67.00;;;3.70;99.90;;;;;;5131494;27;20199;-70
2021/11/14 03:02:06;;;;;;;180.50;64.10;;;3.70;99.90;;;;;;5131204;27;20198;-70
2021/11/14 03:04:54;;;;;;;165.00;62.67;;;3.70;99.90;;;;;;5130031;27;20210;-70
2021/11/14 03:07:41;;;;;;;151.77;58.73;;;3.70;99.90;;;;;;5131555;27;20630;-70
2021/11/14 03:10:31;;;;;;;155.57;57.97;;;3.70;99.90;;;;;;5130433;27;20206;-70
2021/11/14 03:13:19;;;;;;;159.23;59.57;;;3.80;99.90;;;;;;5131128;27;20584;-70
2021/11/14 03:16:14;;;;;;;160.57;61.10;;;3.70;99.90;;;;;;5131313;27;20201;-70
2021/11/14 03:19:02;;;;;;;152.43;58.90;;;3.80;99.90;;;;;;5130248;27;20206;-70
2021/11/14 03:21:49;;;;;;;146.93;55.73;;;3.80;99.90;;;;;;5131310;27;20669;-70
2021/11/14 03:24:38;;;;;;;174.37;61.27;;;3.80;99.90;;;;;;5131249;27;20214;-70
2021/11/14 03:27:27;;;;;;;159.97;60.90;;;3.80;99.90;;;;;;5130942;27;20202;-70
2021/11/14 03:30:16;;;;;;;175.73;61.07;;;3.90;99.90;;;;;;5130854;27;20238;-70
2021/11/14 03:33:04;;;;;;;159.03;58.87;;;3.90;99.90;;;;;;5130161;27;20234;-70
2021/11/14 03:35:53;;;;;;;155.10;59.37;;;3.80;99.90;;;;;;5130725;27;20199;-70
2021/11/14 03:38:43;;;;;;;163.13;57.83;;;3.80;99.90;;;;;;5130745;27;20213;-70
2021/11/14 03:41:36;;;;;;;153.47;56.50;;;3.80;99.90;;;;;;5130212;27;20231;-71
2021/11/14 03:44:26;;;;;;;141.33;53.63;;;3.90;99.90;;;;;;5131509;27;20708;-70
2021/11/14 03:47:17;;;;;;;149.57;52.53;;;3.90;99.90;;;;;;5130690;27;20226;-70
2021/11/14 03:50:06;;;;;;;129.97;49.17;;;3.90;99.90;;;;;;5130182;27;20198;-70
2021/11/14 03:52:55;;;;;;;134.80;52.80;;;3.90;99.90;;;;;;5130349;27;20691;-70
2021/11/14 03:55:45;;;;;;;140.47;51.70;;;3.90;99.90;;;;;;5130284;27;20765;-70
2021/11/14 03:58:34;;;;;;;137.13;51.10;;;4.00;99.90;;;;;;5130329;27;20328;-70
2021/11/14 04:01:25;;;;;;;136.10;51.23;;;4.00;99.90;;;;;;5130793;27;20232;-70
2021/11/14 04:04:13;;;;;;;133.43;48.93;;;3.90;99.90;;;;;;5130741;27;20202;-70
2021/11/14 04:07:06;;;;;;;142.53;51.50;;;4.00;99.90;;;;;;5130254;27;20331;-70
2021/11/14 04:09:53;;;;;;;128.50;48.60;;;3.90;99.90;;;;;;5129837;27;20228;-70
2021/11/14 04:12:42;;;;;;;131.60;50.40;;;4.00;99.90;;;;;;5130170;27;20203;-70
2021/11/14 04:15:29;;;;;;;128.03;50.00;;;4.00;99.90;;;;;;5129286;27;20250;-70
2021/11/14 04:18:18;;;;;;;142.53;52.07;;;4.00;99.90;;;;;;5130351;27;20292;-70
2021/11/14 04:21:07;;;;;;;131.80;51.30;;;3.90;99.90;;;;;;5129735;27;20199;-70
2021/11/14 04:23:54;;;;;;;128.73;48.80;;;4.00;99.90;;;;;;5129602;27;20328;-70
2021/11/14 04:26:42;;;;;;;136.27;49.53;;;4.00;99.90;;;;;;5130261;27;20195;-70
2021/11/14 04:29:29;;;;;;;126.57;50.40;;;4.00;99.90;;;;;;5130190;27;20198;-70
2021/11/14 04:32:17;;;;;;;134.70;50.03;;;4.00;99.90;;;;;;5129634;27;20306;-70
2021/11/14 04:35:07;;;;;;;474.97;59.97;;;4.00;99.90;;;;;;5129532;27;20198;-70
2021/11/14 04:37:59;;;;;;;127.37;51.90;;;4.00;99.90;;;;;;5130038;27;20230;-70
2021/11/14 04:40:47;;;;;;;135.33;49.93;;;4.10;99.90;;;;;;5129478;27;20708;-70
2021/11/14 04:43:34;;;;;;;132.37;49.90;;;4.10;99.90;;;;;;5128923;27;20666;-70
2021/11/14 04:46:22;;;;;;;129.60;48.50;;;4.00;99.90;;;;;;5129683;27;20217;-70
2021/11/14 04:49:10;;;;;;;128.23;49.47;;;4.10;99.90;;;;;;5129480;28;20255;-70
2021/11/14 04:51:59;;;;;;;135.10;50.43;;;4.10;99.90;;;;;;5128650;28;20578;-70
2021/11/14 04:54:46;;;;;;;119.97;48.53;;;4.00;99.90;;;;;;5129806;28;20210;-70
2021/11/14 04:57:34;;;;;;;138.83;50.50;;;4.10;99.90;;;;;;5129559;28;20199;-70
2021/11/14 05:00:23;;;;;;;136.87;50.47;;;4.10;99.90;;;;;;5128834;28;20217;-70
2021/11/14 05:03:10;;;;;;;137.07;49.83;;;4.10;99.90;;;;;;5129206;28;20665;-70
2021/11/14 05:05:58;;;;;;;128.97;50.93;;;4.10;99.90;;;;;;5129658;28;20210;-70
2021/11/14 05:08:47;;;;;;;131.10;52.03;;;4.10;99.90;;;;;;5129947;28;20206;-70
2021/11/14 05:11:35;;;;;;;139.43;51.50;;;4.10;99.90;;;;;;5130009;28;20202;-70
2021/11/14 05:14:22;;;;;;;139.83;51.60;;;4.20;99.90;;;;;;5129948;28;20290;-70
2021/11/14 05:17:11;;;;;;;129.87;49.83;;;4.10;99.90;;;;;;5130076;28;20190;-70
2021/11/14 05:19:58;;;;;;;142.17;52.77;;;4.10;99.90;;;;;;5128707;28;20202;-70
2021/11/14 05:22:46;;;;;;;148.90;56.50;;;4.10;99.90;;;;;;5129362;28;20555;-70
2021/11/14 05:25:35;;;;;;;158.90;61.17;;;4.10;99.90;;;;;;5128966;28;20211;-70
2021/11/14 05:28:22;;;;;;;153.83;61.87;;;4.10;99.90;;;;;;5131703;27;20199;-70
2021/11/14 05:31:10;;;;;;;144.00;54.80;;;4.10;99.90;;;;;;5133130;27;20606;-70
2021/11/14 05:33:57;;;;;;;152.60;56.87;;;4.10;99.90;;;;;;5132723;27;20226;-70
2021/11/14 05:36:45;;;;;;;144.17;54.13;;;4.10;99.90;;;;;;5133454;27;20578;-70
2021/11/14 05:39:32;;;;;;;143.30;54.87;;;4.10;99.90;;;;;;5133844;27;20203;-70
2021/11/14 05:42:22;;;;;;;142.37;53.17;;;4.10;99.90;;;;;;5132544;27;20205;-70
2021/11/14 05:45:10;;;;;;;141.47;55.63;;;4.20;99.90;;;;;;5133231;27;20206;-70
2021/11/14 05:47:57;;;;;;;136.03;53.80;;;4.10;99.90;;;;;;5132720;27;20691;-69
2021/11/14 05:50:45;;;;;;;137.27;52.90;;;4.20;99.90;;;;;;5132610;27;20664;-69
2021/11/14 05:53:33;;;;;;;127.67;47.43;;;4.20;99.90;;;;;;5133340;27;20597;-69
2021/11/14 05:56:21;;;;;;;118.13;44.37;;;4.20;99.90;;;;;;5132349;27;20347;-69
2021/11/14 05:59:28;;;;;;;109.73;43.83;;;4.20;99.90;;;;;;5133024;27;20282;-69
2021/11/14 06:02:33;;;;;;;111.00;45.27;;;4.20;99.90;;;;;;5131801;27;20190;-69
2021/11/14 06:05:29;;;;;;;113.07;43.40;;;4.20;99.90;;;;;;5132542;27;20684;-69
2021/11/14 06:08:22;;;;;;;113.23;43.50;;;4.30;99.90;;;;;;5132072;27;20202;-69
2021/11/14 06:11:10;;;;;;;109.37;42.67;;;4.30;99.90;;;;;;5132962;27;20195;-69
2021/11/14 06:13:58;;;;;;;114.93;43.43;;;4.20;99.90;;;;;;5087149;27;20201;-70
2021/11/14 06:16:46;;;;;;;105.93;41.37;;;4.30;99.90;;;;;;5131398;27;20199;-69
2021/11/14 06:19:34;;;;;;;112.60;43.73;;;4.30;99.90;;;;;;5131845;27;20195;-69
2021/11/14 06:22:22;;;;;;;117.80;44.63;;;4.30;99.90;;;;;;5132469;27;20693;-70
2021/11/14 06:25:09;;;;;;;120.27;45.83;;;4.30;99.90;;;;;;5131976;27;20211;-69
2021/11/14 06:27:57;;;;;;;107.23;43.70;;;4.30;99.90;;;;;;5131723;27;20202;-69
2021/11/14 06:30:44;;;;;;;107.53;44.47;;;4.30;99.90;;;;;;5131934;27;20588;-69
2021/11/14 06:33:33;;;;;;;114.60;43.93;;;4.30;99.90;;;;;;5131687;27;20612;-69
2021/11/14 06:36:22;;;;;;;106.27;42.80;;;4.30;99.90;;;;;;5131771;27;20197;-69
2021/11/14 06:39:09;;;;;;;108.20;43.20;;;4.30;99.90;;;;;;5130950;27;20226;-70
2021/11/14 06:41:57;;;;;;;113.27;45.43;;;4.40;99.90;;;;;;5131984;27;20194;-69
2021/11/14 06:44:44;;;;;;;115.47;45.50;;;4.40;99.90;;;;;;5131862;27;20203;-70
2021/11/14 06:47:32;;;;;;;110.07;44.77;;;4.30;99.90;;;;;;5131966;27;20246;-70
2021/11/14 06:50:21;;;;;;;105.00;42.73;;;4.40;99.90;;;;;;5131641;27;20691;-69
2021/11/14 06:53:09;;;;;;;122.77;45.57;;;4.40;99.90;;;;;;5132080;27;20209;-69
2021/11/14 06:55:56;;;;;;;112.20;44.70;;;4.40;99.90;;;;;;5131990;27;20229;-69
2021/11/14 06:58:44;;;;;;;107.53;42.77;;;4.40;99.90;;;;;;5131216;27;20197;-69
2021/11/14 07:01:32;;;;;;;104.00;41.67;;;4.40;99.90;;;;;;5131091;27;20595;-70
2021/11/14 07:04:19;;;;;;;104.30;42.97;;;4.40;99.90;;;;;;5131740;27;21012;-69
2021/11/14 07:07:08;;;;;;;104.60;41.07;;;4.40;99.90;;;;;;5131278;27;20695;-69
2021/11/14 07:09:56;;;;;;;105.00;42.70;;;4.40;99.90;;;;;;5131933;27;20206;-69
2021/11/14 07:12:44;;;;;;;97.90;41.03;;;4.40;99.90;;;;;;5131072;27;20190;-69
2021/11/14 07:15:31;;;;;;;111.93;43.77;;;4.40;99.90;;;;;;5130981;27;20201;-70
2021/11/14 07:18:19;;;;;;;111.83;42.53;;;4.50;99.90;;;;;;5130973;27;20213;-69
2021/11/14 07:21:06;;;;;;;106.30;43.27;;;4.50;99.90;;;;;;5130847;27;20210;-70
2021/11/14 07:23:55;;;;;;;115.73;47.83;;;4.60;99.90;;;;;;5131383;27;20561;-70
2021/11/14 07:26:43;;;;;;;125.60;47.33;;;4.60;99.90;;;;;;5130477;27;20217;-69
2021/11/14 07:29:31;;;;;;;123.73;47.23;;;4.70;99.90;;;;;;5131179;27;20199;-69
2021/11/14 07:32:20;;;;;;;115.40;45.17;;;4.70;99.90;;;;;;5130484;27;20237;-69
2021/11/14 07:35:08;;;;;;;111.77;45.77;;;4.70;99.90;;;;;;5130587;27;20749;-69
2021/11/14 07:38:00;;;;;;;113.27;45.33;;;4.70;99.90;;;;;;5131170;27;20569;-69
2021/11/14 07:40:49;;;;;;;110.43;43.60;;;4.70;99.90;;;;;;5130913;27;20209;-69
2021/11/14 07:43:37;;;;;;;108.53;42.73;;;4.80;99.90;;;;;;5130638;27;20205;-70
2021/11/14 07:46:24;;;;;;;105.50;43.00;;;4.70;99.90;;;;;;5130155;27;20582;-69
2021/11/14 07:49:12;;;;;;;107.47;42.80;;;4.70;99.90;;;;;;5130378;27;20214;-70
2021/11/14 07:52:00;;;;;;;109.10;43.37;;;4.80;99.90;;;;;;5129580;27;20213;-69
2021/11/14 07:54:47;;;;;;;101.93;41.20;;;4.80;99.90;;;;;;5131398;27;20777;-69
2021/11/14 07:57:38;;;;;;;97.77;42.17;;;4.80;99.90;;;;;;5131252;27;20194;-69
2021/11/14 08:00:26;;;;;;;109.07;41.63;;;4.90;99.90;;;;;;5130186;27;20198;-69
2021/11/14 08:03:14;;;;;;;107.33;40.13;;;5.00;99.90;;;;;;5130754;27;20604;-69
2021/11/14 08:06:01;;;;;;;97.50;40.50;;;5.00;99.90;;;;;;5130521;27;20226;-69
2021/11/14 08:08:49;;;;;;;100.63;40.13;;;5.10;99.90;;;;;;5130443;27;20707;-69
2021/11/14 08:11:37;;;;;;;104.70;42.13;;;5.20;99.90;;;;;;5130685;27;20262;-69
2021/11/14 08:14:26;;;;;;;98.17;39.83;;;5.20;99.90;;;;;;5129165;27;20559;-69
2021/11/14 08:17:13;;;;;;;105.70;39.93;;;5.30;99.90;;;;;;5130304;27;20702;-69
2021/11/14 08:20:01;;;;;;;95.07;38.03;;;5.20;99.90;;;;;;5130514;27;20211;-70
2021/11/14 08:22:49;;;;;;;93.90;37.83;;;5.30;99.90;;;;;;5129906;27;20290;-70
2021/11/14 08:25:36;;;;;;;99.17;37.80;;;5.30;99.90;;;;;;5130466;27;20590;-69
2021/11/14 08:28:24;;;;;;;103.47;40.07;;;5.30;99.90;;;;;;5129575;27;20190;-69
2021/11/14 08:31:18;;;;;;;101.50;38.30;;;5.40;99.90;;;;;;5131060;27;20198;-69
2021/11/14 08:34:06;;;;;;;102.63;41.17;;;5.50;99.90;;;;;;5129459;27;20622;-69
2021/11/14 08:36:54;;;;;;;99.30;39.13;;;5.40;99.90;;;;;;5129758;27;20654;-69
2021/11/14 08:39:41;;;;;;;99.77;39.17;;;5.50;99.90;;;;;;5130085;27;20198;-69
2021/11/14 08:42:29;;;;;;;93.90;37.03;;;5.50;99.90;;;;;;5129069;27;20535;-69
2021/11/14 08:45:17;;;;;;;97.13;37.60;;;5.60;99.90;;;;;;5130190;27;20199;-70
2021/11/14 08:48:06;;;;;;;90.43;36.47;;;5.60;99.90;;;;;;5129915;27;20191;-69
2021/11/14 08:50:54;;;;;;;90.03;37.33;;;5.70;99.90;;;;;;5130034;28;20213;-69
2021/11/14 08:53:41;;;;;;;85.43;37.57;;;5.80;99.90;;;;;;5129351;28;20206;-69
2021/11/14 08:56:29;;;;;;;92.50;39.87;;;5.80;99.90;;;;;;5129547;28;20205;-69
2021/11/14 08:59:17;;;;;;;92.83;37.83;;;5.90;99.90;;;;;;5129882;28;20210;-70
2021/11/14 09:02:04;;;;;;;94.53;37.17;;;6.00;99.90;;;;;;5131127;27;20199;-69
2021/11/14 09:04:53;;;;;;;95.00;37.77;;;6.00;99.90;;;;;;5132793;27;20206;-69
2021/11/14 09:07:44;;;;;;;94.83;39.50;;;6.10;99.90;;;;;;5133287;27;20754;-70
2021/11/14 09:10:31;;;;;;;89.20;36.90;;;6.20;99.90;;;;;;5133367;27;20290;-69
2021/11/14 09:13:19;;;;;;;93.80;39.33;;;6.20;99.90;;;;;;5133767;27;20198;-69
2021/11/14 09:16:07;;;;;;;88.03;38.07;;;6.30;99.90;;;;;;5133377;27;20217;-69
2021/11/14 09:18:55;;;;;;;87.73;36.33;;;6.40;99.90;;;;;;5132812;27;20212;-69
2021/11/14 09:21:44;;;;;;;83.20;36.30;;;6.40;99.90;;;;;;5133460;27;20195;-69
2021/11/14 09:24:32;;;;;;;74.60;32.90;;;6.40;99.90;;;;;;5132976;27;20225;-70
2021/11/14 09:27:19;;;;;;;90.03;37.37;;;6.40;99.90;;;;;;5133007;27;20300;-69
2021/11/14 09:30:08;;;;;;;88.47;36.67;;;6.40;99.90;;;;;;5133554;27;20252;-70
2021/11/14 09:32:56;;;;;;;83.73;35.13;;;6.40;99.90;;;;;;5133052;27;20234;-69
2021/11/14 09:35:43;;;;;;;88.67;36.90;;;6.50;99.90;;;;;;5132914;27;20207;-70
2021/11/14 09:38:32;;;;;;;85.90;36.20;;;6.60;99.90;;;;;;5133987;27;20205;-69
2021/11/14 09:41:20;;;;;;;85.90;38.27;;;6.60;99.90;;;;;;5133939;27;20564;-69
2021/11/14 09:44:10;;;;;;;95.40;37.90;;;6.70;99.90;;;;;;5133644;27;20746;-69
2021/11/14 09:46:59;;;;;;;87.30;36.47;;;6.80;99.90;;;;;;5132751;27;20241;-70
2021/11/14 09:49:46;;;;;;;92.43;38.07;;;6.90;99.90;;;;;;5133407;27;20199;-69
2021/11/14 09:52:34;;;;;;;78.20;33.63;;;7.00;99.90;;;;;;5133131;27;20195;-69
2021/11/14 09:55:24;;;;;;;77.90;33.67;;;7.00;99.90;;;;;;5132826;27;20222;-69
2021/11/14 09:58:11;;;;;;;77.87;34.57;;;7.00;99.90;;;;;;5132358;27;20204;-69
2021/11/14 10:00:59;;;;;;;79.87;33.30;;;7.00;99.90;;;;;;5133504;27;20214;-69
2021/11/14 10:03:46;;;;;;;76.43;32.93;;;7.00;99.90;;;;;;5132383;27;20561;-69
2021/11/14 10:06:35;;;;;;;70.20;32.03;;;7.10;99.90;;;;;;5132452;27;20227;-70
2021/11/14 10:09:29;;;;;;;71.23;30.90;;;7.10;99.90;;;;;;5132280;27;20211;-69
2021/11/14 10:12:21;;;;;;;65.80;28.33;;;7.10;99.90;;;;;;5132693;27;20211;-69
2021/11/14 10:15:10;;;;;;;71.27;31.50;;;7.20;99.90;;;;;;5131198;27;20223;-69
2021/11/14 10:17:59;;;;;;;71.13;31.40;;;7.20;99.90;;;;;;5132909;27;20198;-69
2021/11/14 10:20:47;;;;;;;73.17;30.43;;;7.20;99.90;;;;;;5132219;27;20202;-69
2021/11/14 10:23:35;;;;;;;71.30;30.33;;;7.20;99.90;;;;;;5131395;27;20245;-69
2021/11/14 10:26:22;;;;;;;67.57;28.97;;;7.30;99.90;;;;;;5132613;27;20207;-69
2021/11/14 10:29:12;;;;;;;71.93;29.60;;;7.30;99.90;;;;;;5132220;27;20200;-69
2021/11/14 10:32:09;;;;;;;74.17;32.67;;;7.40;99.90;;;;;;5131969;27;20253;-69
2021/11/14 10:34:59;;;;;;;79.07;30.43;;;7.40;99.90;;;;;;5131963;27;20330;-69
2021/11/14 10:37:46;;;;;;;66.43;29.87;;;7.50;99.90;;;;;;5131805;27;20204;-70
2021/11/14 10:40:37;;;;;;;68.50;30.23;;;7.50;99.90;;;;;;5131601;27;20343;-69
2021/11/14 10:43:25;;;;;;;73.27;31.00;;;7.70;99.90;;;;;;5131918;27;20197;-70
2021/11/14 10:46:20;;;;;;;67.00;31.47;;;7.70;99.90;;;;;;5131983;27;20205;-69
2021/11/14 10:49:08;;;;;;;76.20;31.70;;;7.80;99.90;;;;;;5131010;27;20667;-70
2021/11/14 10:51:58;;;;;;;79.17;32.83;;;7.90;99.90;;;;;;5131886;27;20568;-69
2021/11/14 10:54:55;;;;;;;70.00;31.07;;;7.90;99.90;;;;;;5133023;27;20219;-69
2021/11/14 10:57:44;;;;;;;70.53;30.23;;;7.90;99.90;;;;;;5132107;27;20285;-69
2021/11/14 11:00:38;;;;;;;64.43;28.63;;;8.00;99.90;;;;;;5131909;27;20550;-69
2021/11/14 11:03:33;;;;;;;59.33;27.93;;;8.00;99.90;;;;;;5131272;27;20693;-69
2021/11/14 11:06:23;;;;;;;58.83;27.83;;;8.10;99.90;;;;;;5131473;27;20579;-69
2021/11/14 11:09:10;;;;;;;60.07;27.07;;;8.10;99.90;;;;;;5131096;27;20228;-69
2021/11/14 11:11:59;;;;;;;55.70;26.20;;;8.20;99.90;;;;;;5131419;27;20249;-69
2021/11/14 11:15:08;;;;;;;63.10;27.50;;;8.20;99.90;;;;;;5130929;27;20668;-69
2021/11/14 11:17:56;;;;;;;62.27;29.43;;;8.30;99.90;;;;;;5131095;27;20194;-70
2021/11/14 11:20:46;;;;;;;61.20;27.83;;;8.30;99.90;;;;;;5130841;27;20279;-69
2021/11/14 11:23:35;;;;;;;65.77;31.27;;;8.40;99.90;;;;;;5130524;27;20214;-69
2021/11/14 11:26:23;;;;;;;62.00;28.90;;;8.30;99.90;;;;;;5130452;27;20210;-69
2021/11/14 11:29:17;;;;;;;55.60;25.53;;;8.40;99.90;;;;;;5130041;27;20332;-69
2021/11/14 11:32:11;;;;;;;58.63;26.23;;;8.30;99.90;;;;;;5130397;27;20228;-70
2021/11/14 11:34:59;;;;;;;55.77;25.73;;;8.30;99.90;;;;;;5129974;27;20209;-69
2021/11/14 11:37:48;;;;;;;65.37;26.67;;;8.30;99.90;;;;;;5129876;27;20201;-70
2021/11/14 11:40:35;;;;;;;56.07;26.50;;;8.20;99.90;;;;;;5130301;27;20232;-69
2021/11/14 11:43:23;;;;;;;58.60;27.57;;;8.10;99.90;;;;;;5131158;27;20273;-69
2021/11/14 11:46:12;;;;;;;60.90;27.33;;;8.00;99.90;;;;;;5131509;27;20235;-69
2021/11/14 11:49:01;;;;;;;69.73;30.60;;;8.00;99.90;;;;;;5131224;27;20201;-69
2021/11/14 11:51:49;;;;;;;68.93;28.30;;;8.00;99.90;;;;;;5131358;27;20212;-69
2021/11/14 11:54:38;;;;;;;62.50;28.20;;;8.00;99.90;;;;;;5130658;27;20222;-69
2021/11/14 11:57:26;;;;;;;54.83;26.20;;;7.90;99.90;;;;;;5130668;27;20571;-69
2021/11/14 12:00:15;;;;;;;56.33;27.07;;;7.90;99.90;;;;;;5130752;27;20200;-69
2021/11/14 12:03:23;;;;;;;60.40;27.67;;;7.90;99.90;;;;;;5130055;27;20232;-69
2021/11/14 12:06:17;;;;;;;53.90;24.53;;;8.00;99.90;;;;;;5130098;27;20330;-69
2021/11/14 12:09:05;;;;;;;64.20;28.60;;;8.00;99.90;;;;;;5130195;27;20197;-69
2021/11/14 12:11:54;;;;;;;57.70;26.07;;;7.90;99.90;;;;;;5130602;27;20664;-69
2021/11/14 12:14:42;;;;;;;50.90;24.90;;;8.00;99.90;;;;;;5129917;27;20793;-69
2021/11/14 12:17:30;;;;;;;53.47;23.33;;;8.00;99.90;;;;;;5129781;27;20197;-69
2021/11/14 12:20:18;;;;;;;59.93;27.10;;;7.90;99.90;;;;;;5130517;27;20202;-69
2021/11/14 12:23:07;;;;;;;52.60;25.13;;;7.80;99.90;;;;;;5129524;27;20203;-69
2021/11/14 12:25:55;;;;;;;46.67;22.90;;;7.80;99.90;;;;;;5129752;27;20221;-69
2021/11/14 12:28:45;;;;;;;48.60;23.90;;;7.80;99.90;;;;;;5130104;27;20327;-69
2021/11/14 12:31:47;;;;;;;65.90;26.27;;;7.70;99.90;;;;;;5129890;27;20208;-70
2021/11/14 12:34:35;;;;;;;65.80;28.00;;;7.70;99.90;;;;;;5129611;27;20205;-69
2021/11/14 12:37:22;;;;;;;66.87;29.77;;;7.60;99.90;;;;;;5128931;27;20203;-70
2021/11/14 12:40:11;;;;;;;69.37;29.93;;;7.60;99.90;;;;;;5129772;27;20208;-69
2021/11/14 12:43:10;;;;;;;71.33;29.87;;;7.60;99.90;;;;;;5130359;27;20280;-69
2021/11/14 12:46:00;;;;;;;69.30;31.27;;;7.50;99.90;;;;;;5129659;27;20212;-69
2021/11/14 12:48:48;;;;;;;81.83;31.63;;;7.40;99.90;;;;;;5129401;27;20707;-69
2021/11/14 12:51:36;;;;;;;76.10;31.83;;;7.30;99.90;;;;;;5129277;27;20198;-69
2021/11/14 12:54:25;;;;;;;70.77;31.07;;;7.40;99.90;;;;;;5129389;28;20769;-69
2021/11/14 12:57:16;;;;;;;77.07;33.63;;;7.30;99.90;;;;;;5129884;28;20197;-69
2021/11/14 13:00:05;;;;;;;80.20;34.40;;;7.20;99.90;;;;;;5129959;28;20366;-70
2021/11/14 13:02:54;;;;;;;77.30;34.53;;;7.20;99.90;;;;;;5128821;28;20338;-69
2021/11/14 13:05:43;;;;;;;80.00;33.90;;;7.10;99.90;;;;;;5129447;28;20209;-69
2021/11/14 13:08:33;;;;;;;78.70;33.03;;;7.10;99.90;;;;;;5129058;28;20606;-70
2021/11/14 13:11:23;;;;;;;82.57;33.53;;;7.10;99.90;;;;;;5128570;28;20198;-69
2021/11/14 13:14:15;;;;;;;79.10;34.67;;;7.10;99.90;;;;;;5129636;28;20283;-69
2021/11/14 13:17:02;;;;;;;74.00;33.30;;;7.00;99.90;;;;;;5129291;28;20197;-70
2021/11/14 13:19:51;;;;;;;77.67;32.47;;;7.00;99.90;;;;;;5129780;28;20205;-69
2021/11/14 13:22:39;;;;;;;80.30;33.73;;;7.00;99.90;;;;;;5130050;28;20212;-69
2021/11/14 13:25:28;;;;;;;79.30;34.13;;;6.90;99.90;;;;;;5129128;28;20317;-69
2021/11/14 13:28:16;;;;;;;79.30;34.37;;;6.90;99.90;;;;;;5129058;28;20214;-69
2021/11/14 13:31:05;;;;;;;81.00;35.23;;;6.80;99.90;;;;;;5129700;28;20205;-70
2021/11/14 13:34:00;;;;;;;85.67;35.80;;;6.80;99.90;;;;;;5109495;28;20315;-69
2021/11/14 13:36:54;;;;;;;79.67;35.17;;;6.80;99.90;;;;;;5108054;28;20254;-70
2021/11/14 13:39:43;;;;;;;81.97;36.03;;;6.70;99.90;;;;;;5109119;28;20232;-69
2021/11/14 13:42:32;;;;;;;86.10;36.80;;;6.70;99.90;;;;;;5109235;28;20210;-69
2021/11/14 13:45:22;;;;;;;86.00;35.10;;;6.60;99.90;;;;;;5128904;28;20204;-69
2021/11/14 13:48:11;;;;;;;94.93;39.67;;;6.60;99.90;;;;;;5130146;27;20259;-69
2021/11/14 13:50:58;;;;;;;97.27;39.30;;;6.50;99.90;;;;;;5133007;27;20207;-69
2021/11/14 13:53:47;;;;;;;84.50;36.93;;;6.50;99.90;;;;;;5133233;27;20215;-69
2021/11/14 13:56:50;;;;;;;89.63;37.63;;;6.50;99.90;;;;;;5133770;27;20217;-70
2021/11/14 13:59:45;;;;;;;93.47;39.53;;;6.50;99.90;;;;;;5132868;27;20205;-69
2021/11/14 14:02:38;;;;;;;88.47;37.33;;;6.40;99.90;;;;;;5132796;27;20220;-69
2021/11/14 14:05:34;;;;;;;86.27;35.93;;;6.40;99.90;;;;;;5133177;27;20202;-69
2021/11/14 14:08:36;;;;;;;90.47;36.90;;;6.40;99.90;;;;;;5131999;27;20328;-69
2021/11/14 14:11:30;;;;;;;103.00;36.97;;;6.40;99.90;;;;;;5133168;27;20209;-69
2021/11/14 14:14:30;;;;;;;97.27;37.40;;;6.40;99.90;;;;;;5132271;27;20216;-69
2021/11/14 14:17:28;;;;;;;93.73;37.20;;;6.40;99.90;;;;;;5132499;27;20205;-69
2021/11/14 14:20:40;;;;;;;103.53;39.13;;;6.30;99.90;;;;;;5131318;27;20198;-70
2021/11/14 14:23:38;;;;;;;99.50;39.27;;;6.30;99.90;;;;;;5132214;27;20204;-69